sensor_id;sensor_type;location;lat;lon;timestamp;temperature;humidity
43697;DHT22;29301;47.620;19.560;2022-12-07T00:11:49;2.90;99.90
43697;DHT22;29301;47.620;19.560;2022-12-07T00:18:43;2.90;99.90
43697;DHT22;29301;47.620;19.560;2022-12-07T00:46:34;2.80;99.90
43697;DHT22;29301;47.620;19.560;2022-12-07T00:49:51;2.40;99.90
43697;DHT22;29301;47.620;19.560;2022-12-07T00:56:09;2.30;99.90
43697;DHT22;29301;47.620;19.560;2022-12-07T01:06:38;2.70;99.90
43697;DHT22;29301;47.620;19.560;2022-12-07T01:35:16;2.60;99.90
43697;DHT22;29301;47.620;19.560;2022-12-07T01:43:09;2.70;99.90
43697;DHT22;29301;47.620;19.560;2022-12-07T01:47:05;2.50;99.90
43697;DHT22;29301;47.620;19.560;2022-12-07T02:00:53;2.40;99.90
43697;DHT22;29301;47.620;19.560;2022-12-07T02:08:18;2.30;99.90
43697;DHT22;29301;47.620;19.560;2022-12-07T02:15:21;2.50;99.90
43697;DHT22;29301;47.620;19.560;2022-12-07T03:02:48;2.80;99.90
43697;DHT22;29301;47.620;19.560;2022-12-07T04:52:32;3.10;99.90
43697;DHT22;29301;47.620;19.560;2022-12-07T04:56:43;3.20;99.90
43697;DHT22;29301;47.620;19.560;2022-12-07T05:32:03;3.10;99.90
43697;DHT22;29301;47.620;19.560;2022-12-07T05:39:02;3.20;99.90
43697;DHT22;29301;47.620;19.560;2022-12-07T06:24:31;3.20;99.90
43697;DHT22;29301;47.620;19.560;2022-12-07T07:28:37;3.70;99.90
43697;DHT22;29301;47.620;19.560;2022-12-07T07:31:06;3.70;99.90
43697;DHT22;29301;47.620;19.560;2022-12-07T07:33:32;3.70;99.90
43697;DHT22;29301;47.620;19.560;2022-12-07T07:35:57;3.70;99.90
43697;DHT22;29301;47.620;19.560;2022-12-07T07:38:23;3.70;99.90
43697;DHT22;29301;47.620;19.560;2022-12-07T07:40:49;3.70;99.90
43697;DHT22;29301;47.620;19.560;2022-12-07T07:43:14;3.70;99.90
43697;DHT22;29301;47.620;19.560;2022-12-07T07:45:40;3.70;99.90
43697;DHT22;29301;47.620;19.560;2022-12-07T07:48:06;3.80;99.90
43697;DHT22;29301;47.620;19.560;2022-12-07T07:50:32;3.80;99.90
43697;DHT22;29301;47.620;19.560;2022-12-07T07:52:57;3.80;99.90
43697;DHT22;29301;47.620;19.560;2022-12-07T07:55:23;3.80;99.90
43697;DHT22;29301;47.620;19.560;2022-12-07T07:57:49;3.90;99.90
43697;DHT22;29301;47.620;19.560;2022-12-07T08:00:15;3.90;99.90
43697;DHT22;29301;47.620;19.560;2022-12-07T08:02:42;3.90;99.90
43697;DHT22;29301;47.620;19.560;2022-12-07T08:05:11;4.00;99.90
43697;DHT22;29301;47.620;19.560;2022-12-07T08:07:37;4.00;99.90
43697;DHT22;29301;47.620;19.560;2022-12-07T08:10:03;4.00;99.90
43697;DHT22;29301;47.620;19.560;2022-12-07T08:12:29;4.00;99.90
43697;DHT22;29301;47.620;19.560;2022-12-07T08:14:55;4.10;99.90
43697;DHT22;29301;47.620;19.560;2022-12-07T08:17:20;4.10;99.90
43697;DHT22;29301;47.620;19.560;2022-12-07T08:19:46;4.10;99.90
43697;DHT22;29301;47.620;19.560;2022-12-07T08:22:12;4.10;99.90
43697;DHT22;29301;47.620;19.560;2022-12-07T08:24:37;4.20;99.90
43697;DHT22;29301;47.620;19.560;2022-12-07T08:27:03;4.20;99.90
43697;DHT22;29301;47.620;19.560;2022-12-07T08:29:29;4.30;99.90
43697;DHT22;29301;47.620;19.560;2022-12-07T08:31:55;4.30;99.90
43697;DHT22;29301;47.620;19.560;2022-12-07T08:34:20;4.30;99.90
43697;DHT22;29301;47.620;19.560;2022-12-07T08:36:46;4.30;99.90
43697;DHT22;29301;47.620;19.560;2022-12-07T08:39:12;4.40;99.90
43697;DHT22;29301;47.620;19.560;2022-12-07T08:41:37;4.40;99.90
43697;DHT22;29301;47.620;19.560;2022-12-07T08:44:03;4.50;99.90
43697;DHT22;29301;47.620;19.560;2022-12-07T08:46:42;4.50;99.90
43697;DHT22;29301;47.620;19.560;2022-12-07T08:49:20;4.50;99.90
43697;DHT22;29301;47.620;19.560;2022-12-07T08:51:47;4.60;99.90
43697;DHT22;29301;47.620;19.560;2022-12-07T08:54:16;4.60;99.90
43697;DHT22;29301;47.620;19.560;2022-12-07T08:56:42;4.70;99.90
43697;DHT22;29301;47.620;19.560;2022-12-07T08:59:09;4.70;99.90
43697;DHT22;29301;47.620;19.560;2022-12-07T09:01:35;4.70;99.90
43697;DHT22;29301;47.620;19.560;2022-12-07T09:04:00;4.80;99.90
43697;DHT22;29301;47.620;19.560;2022-12-07T09:06:26;4.80;99.90
43697;DHT22;29301;47.620;19.560;2022-12-07T09:08:56;4.80;99.90
43697;DHT22;29301;47.620;19.560;2022-12-07T09:11:24;4.90;99.90
43697;DHT22;29301;47.620;19.560;2022-12-07T09:13:50;5.00;99.90
43697;DHT22;29301;47.620;19.560;2022-12-07T09:16:15;5.10;99.90
43697;DHT22;29301;47.620;19.560;2022-12-07T09:18:41;5.10;99.90
43697;DHT22;29301;47.620;19.560;2022-12-07T09:21:07;5.20;99.90
43697;DHT22;29301;47.620;19.560;2022-12-07T09:23:32;5.20;99.90
43697;DHT22;29301;47.620;19.560;2022-12-07T09:26:02;5.20;99.90
43697;DHT22;29301;47.620;19.560;2022-12-07T09:28:30;5.30;99.90
43697;DHT22;29301;47.620;19.560;2022-12-07T09:30:56;5.30;99.90
43697;DHT22;29301;47.620;19.560;2022-12-07T09:33:22;5.40;99.90
43697;DHT22;29301;47.620;19.560;2022-12-07T09:35:48;5.50;99.90
43697;DHT22;29301;47.620;19.560;2022-12-07T09:38:14;5.70;99.90
43697;DHT22;29301;47.620;19.560;2022-12-07T09:40:41;5.70;99.90
43697;DHT22;29301;47.620;19.560;2022-12-07T09:43:22;5.70;99.90
43697;DHT22;29301;47.620;19.560;2022-12-07T09:45:51;5.70;99.90
43697;DHT22;29301;47.620;19.560;2022-12-07T09:48:34;5.60;99.90
43697;DHT22;29301;47.620;19.560;2022-12-07T09:51:18;5.70;99.90
43697;DHT22;29301;47.620;19.560;2022-12-07T09:53:45;5.70;99.90
43697;DHT22;29301;47.620;19.560;2022-12-07T09:56:13;5.70;99.90
43697;DHT22;29301;47.620;19.560;2022-12-07T09:58:40;5.80;99.90
43697;DHT22;29301;47.620;19.560;2022-12-07T10:01:15;5.80;99.90
43697;DHT22;29301;47.620;19.560;2022-12-07T10:03:52;5.80;99.90
43697;DHT22;29301;47.620;19.560;2022-12-07T10:06:18;5.80;99.90
43697;DHT22;29301;47.620;19.560;2022-12-07T10:08:44;5.70;99.90
43697;DHT22;29301;47.620;19.560;2022-12-07T10:11:10;5.80;99.90
43697;DHT22;29301;47.620;19.560;2022-12-07T10:13:38;5.70;99.90
43697;DHT22;29301;47.620;19.560;2022-12-07T10:16:05;5.70;99.90
43697;DHT22;29301;47.620;19.560;2022-12-07T10:18:39;5.80;99.90
43697;DHT22;29301;47.620;19.560;2022-12-07T10:21:19;5.80;99.90
43697;DHT22;29301;47.620;19.560;2022-12-07T10:28:55;6.10;99.90
43697;DHT22;29301;47.620;19.560;2022-12-07T10:31:23;6.20;99.90
43697;DHT22;29301;47.620;19.560;2022-12-07T10:33:57;6.30;99.90
43697;DHT22;29301;47.620;19.560;2022-12-07T10:36:37;6.30;99.90
43697;DHT22;29301;47.620;19.560;2022-12-07T10:39:13;6.30;99.90
43697;DHT22;29301;47.620;19.560;2022-12-07T10:41:59;6.40;99.80
43697;DHT22;29301;47.620;19.560;2022-12-07T10:44:30;6.40;98.80
43697;DHT22;29301;47.620;19.560;2022-12-07T10:50:27;6.60;98.60
43697;DHT22;29301;47.620;19.560;2022-12-07T11:06:30;6.60;97.20
43697;DHT22;29301;47.620;19.560;2022-12-07T11:22:20;7.50;99.90
43697;DHT22;29301;47.620;19.560;2022-12-07T11:24:57;7.80;99.90
43697;DHT22;29301;47.620;19.560;2022-12-07T11:27:37;7.70;94.40
43697;DHT22;29301;47.620;19.560;2022-12-07T11:30:23;7.40;92.20
43697;DHT22;29301;47.620;19.560;2022-12-07T11:36:02;7.00;91.10
43697;DHT22;29301;47.620;19.560;2022-12-07T11:38:45;6.90;90.70
43697;DHT22;29301;47.620;19.560;2022-12-07T11:41:12;6.80;91.60
43697;DHT22;29301;47.620;19.560;2022-12-07T11:46:47;6.70;91.70
43697;DHT22;29301;47.620;19.560;2022-12-07T11:49:42;6.70;92.20
43697;DHT22;29301;47.620;19.560;2022-12-07T11:52:26;6.70;91.40
43697;DHT22;29301;47.620;19.560;2022-12-07T11:54:53;6.60;92.50
43697;DHT22;29301;47.620;19.560;2022-12-07T11:57:36;6.60;92.60
43697;DHT22;29301;47.620;19.560;2022-12-07T12:00:06;6.60;92.40
43697;DHT22;29301;47.620;19.560;2022-12-07T12:05:22;6.60;92.00
43697;DHT22;29301;47.620;19.560;2022-12-07T12:08:16;6.50;92.50
43697;DHT22;29301;47.620;19.560;2022-12-07T12:11:08;6.50;93.00
43697;DHT22;29301;47.620;19.560;2022-12-07T12:21:30;6.50;92.90
43697;DHT22;29301;47.620;19.560;2022-12-07T12:24:16;6.50;93.10
43697;DHT22;29301;47.620;19.560;2022-12-07T12:26:56;6.50;92.70
43697;DHT22;29301;47.620;19.560;2022-12-07T12:29:39;6.40;93.20
43697;DHT22;29301;47.620;19.560;2022-12-07T12:42:49;6.60;94.60
43697;DHT22;29301;47.620;19.560;2022-12-07T12:45:25;6.60;94.40
43697;DHT22;29301;47.620;19.560;2022-12-07T12:48:49;6.60;93.80
43697;DHT22;29301;47.620;19.560;2022-12-07T12:54:10;6.60;93.50
43697;DHT22;29301;47.620;19.560;2022-12-07T13:15:48;6.50;91.20
43697;DHT22;29301;47.620;19.560;2022-12-07T13:34:04;6.60;87.60
43697;DHT22;29301;47.620;19.560;2022-12-07T13:36:34;6.60;87.50
43697;DHT22;29301;47.620;19.560;2022-12-07T13:39:18;6.50;88.40
43697;DHT22;29301;47.620;19.560;2022-12-07T13:41:48;6.50;89.40
43697;DHT22;29301;47.620;19.560;2022-12-07T13:44:17;6.40;89.60
43697;DHT22;29301;47.620;19.560;2022-12-07T13:49:59;6.40;90.30
43697;DHT22;29301;47.620;19.560;2022-12-07T13:52:29;6.50;91.20
43697;DHT22;29301;47.620;19.560;2022-12-07T13:57:32;6.50;91.20
43697;DHT22;29301;47.620;19.560;2022-12-07T14:00:05;6.50;90.70
43697;DHT22;29301;47.620;19.560;2022-12-07T14:02:34;6.50;91.00
43697;DHT22;29301;47.620;19.560;2022-12-07T14:08:33;6.60;89.10
43697;DHT22;29301;47.620;19.560;2022-12-07T14:15:50;6.50;86.60
43697;DHT22;29301;47.620;19.560;2022-12-07T14:18:29;6.50;87.50
43697;DHT22;29301;47.620;19.560;2022-12-07T14:23:37;6.40;88.90
43697;DHT22;29301;47.620;19.560;2022-12-07T14:26:13;6.30;88.40
43697;DHT22;29301;47.620;19.560;2022-12-07T14:28:41;6.30;88.90
43697;DHT22;29301;47.620;19.560;2022-12-07T14:31:16;6.30;88.60
43697;DHT22;29301;47.620;19.560;2022-12-07T14:33:42;6.30;88.20
43697;DHT22;29301;47.620;19.560;2022-12-07T14:36:12;6.20;88.60
43697;DHT22;29301;47.620;19.560;2022-12-07T14:38:39;6.10;89.20
43697;DHT22;29301;47.620;19.560;2022-12-07T14:41:10;6.10;89.70
43697;DHT22;29301;47.620;19.560;2022-12-07T14:43:56;6.00;90.20
43697;DHT22;29301;47.620;19.560;2022-12-07T14:46:22;6.00;89.80
43697;DHT22;29301;47.620;19.560;2022-12-07T14:48:48;5.90;89.10
43697;DHT22;29301;47.620;19.560;2022-12-07T14:51:13;5.80;89.90
43697;DHT22;29301;47.620;19.560;2022-12-07T14:53:47;5.80;90.10
43697;DHT22;29301;47.620;19.560;2022-12-07T14:56:13;5.80;90.30
43697;DHT22;29301;47.620;19.560;2022-12-07T14:58:40;5.70;90.20
43697;DHT22;29301;47.620;19.560;2022-12-07T15:01:06;5.70;90.40
43697;DHT22;29301;47.620;19.560;2022-12-07T15:03:31;5.60;90.60
43697;DHT22;29301;47.620;19.560;2022-12-07T15:05:57;5.40;90.60
43697;DHT22;29301;47.620;19.560;2022-12-07T15:08:23;5.30;91.00
43697;DHT22;29301;47.620;19.560;2022-12-07T15:10:49;5.20;91.40
43697;DHT22;29301;47.620;19.560;2022-12-07T15:13:14;5.20;91.60
43697;DHT22;29301;47.620;19.560;2022-12-07T15:15:59;5.00;91.70
43697;DHT22;29301;47.620;19.560;2022-12-07T15:18:25;4.90;92.00
43697;DHT22;29301;47.620;19.560;2022-12-07T15:20:51;4.90;91.90
43697;DHT22;29301;47.620;19.560;2022-12-07T15:23:17;4.90;91.60
43697;DHT22;29301;47.620;19.560;2022-12-07T15:25:47;4.80;91.60
43697;DHT22;29301;47.620;19.560;2022-12-07T15:28:14;4.80;91.60
43697;DHT22;29301;47.620;19.560;2022-12-07T15:30:41;4.80;91.40
43697;DHT22;29301;47.620;19.560;2022-12-07T15:33:08;4.70;91.30
43697;DHT22;29301;47.620;19.560;2022-12-07T15:35:37;4.70;91.40
43697;DHT22;29301;47.620;19.560;2022-12-07T15:38:03;4.60;91.40
43697;DHT22;29301;47.620;19.560;2022-12-07T15:40:29;4.60;91.40
43697;DHT22;29301;47.620;19.560;2022-12-07T15:42:55;4.60;91.40
43697;DHT22;29301;47.620;19.560;2022-12-07T15:45:20;4.50;91.30
43697;DHT22;29301;47.620;19.560;2022-12-07T15:47:46;4.50;91.40
43697;DHT22;29301;47.620;19.560;2022-12-07T15:50:14;4.40;91.90
43697;DHT22;29301;47.620;19.560;2022-12-07T15:52:40;4.50;92.10
43697;DHT22;29301;47.620;19.560;2022-12-07T15:55:06;4.50;92.30
43697;DHT22;29301;47.620;19.560;2022-12-07T15:57:34;4.50;92.40
43697;DHT22;29301;47.620;19.560;2022-12-07T16:00:00;4.50;92.10
43697;DHT22;29301;47.620;19.560;2022-12-07T16:02:26;4.50;92.30
43697;DHT22;29301;47.620;19.560;2022-12-07T16:04:52;4.50;92.40
43697;DHT22;29301;47.620;19.560;2022-12-07T16:07:18;4.50;91.90
43697;DHT22;29301;47.620;19.560;2022-12-07T16:09:45;4.40;91.50
43697;DHT22;29301;47.620;19.560;2022-12-07T16:12:11;4.20;91.40
43697;DHT22;29301;47.620;19.560;2022-12-07T16:14:40;4.10;91.80
43697;DHT22;29301;47.620;19.560;2022-12-07T16:17:07;4.10;91.80
43697;DHT22;29301;47.620;19.560;2022-12-07T16:19:32;4.10;91.90
43697;DHT22;29301;47.620;19.560;2022-12-07T16:21:58;4.20;92.10
43697;DHT22;29301;47.620;19.560;2022-12-07T16:24:24;4.20;92.30
43697;DHT22;29301;47.620;19.560;2022-12-07T16:26:50;4.30;92.40
43697;DHT22;29301;47.620;19.560;2022-12-07T16:29:17;4.30;92.50
43697;DHT22;29301;47.620;19.560;2022-12-07T16:31:43;4.40;92.50
43697;DHT22;29301;47.620;19.560;2022-12-07T16:34:09;4.40;92.10
43697;DHT22;29301;47.620;19.560;2022-12-07T16:36:35;4.20;91.70
43697;DHT22;29301;47.620;19.560;2022-12-07T16:39:00;4.10;91.90
43697;DHT22;29301;47.620;19.560;2022-12-07T16:41:26;4.10;92.20
43697;DHT22;29301;47.620;19.560;2022-12-07T16:43:52;4.10;92.30
43697;DHT22;29301;47.620;19.560;2022-12-07T16:46:18;4.10;92.50
43697;DHT22;29301;47.620;19.560;2022-12-07T16:48:44;4.20;92.50
43697;DHT22;29301;47.620;19.560;2022-12-07T16:51:11;4.20;92.70
43697;DHT22;29301;47.620;19.560;2022-12-07T16:53:39;4.20;92.70
43697;DHT22;29301;47.620;19.560;2022-12-07T16:56:10;4.10;92.60
43697;DHT22;29301;47.620;19.560;2022-12-07T16:58:36;4.00;92.00
43697;DHT22;29301;47.620;19.560;2022-12-07T17:01:10;3.80;91.60
43697;DHT22;29301;47.620;19.560;2022-12-07T17:03:35;3.60;91.90
43697;DHT22;29301;47.620;19.560;2022-12-07T17:06:01;3.60;92.50
43697;DHT22;29301;47.620;19.560;2022-12-07T17:08:27;3.70;92.90
43697;DHT22;29301;47.620;19.560;2022-12-07T17:10:52;3.60;93.10
43697;DHT22;29301;47.620;19.560;2022-12-07T17:13:18;3.60;93.00
43697;DHT22;29301;47.620;19.560;2022-12-07T17:16:05;3.60;93.00
43697;DHT22;29301;47.620;19.560;2022-12-07T17:18:33;3.60;93.00
43697;DHT22;29301;47.620;19.560;2022-12-07T17:21:07;3.60;92.80
43697;DHT22;29301;47.620;19.560;2022-12-07T17:23:34;3.50;92.80
43697;DHT22;29301;47.620;19.560;2022-12-07T17:26:24;3.50;93.00
43697;DHT22;29301;47.620;19.560;2022-12-07T17:28:49;3.40;92.90
43697;DHT22;29301;47.620;19.560;2022-12-07T17:31:17;3.30;93.10
43697;DHT22;29301;47.620;19.560;2022-12-07T17:33:44;3.30;93.10
43697;DHT22;29301;47.620;19.560;2022-12-07T17:36:11;3.10;92.50
43697;DHT22;29301;47.620;19.560;2022-12-07T17:38:38;2.70;93.20
43697;DHT22;29301;47.620;19.560;2022-12-07T17:41:13;2.50;94.40
43697;DHT22;29301;47.620;19.560;2022-12-07T17:44:00;2.30;95.20
43697;DHT22;29301;47.620;19.560;2022-12-07T17:46:26;2.30;95.80
43697;DHT22;29301;47.620;19.560;2022-12-07T17:48:56;2.20;96.50
43697;DHT22;29301;47.620;19.560;2022-12-07T17:51:22;2.00;97.40
43697;DHT22;29301;47.620;19.560;2022-12-07T17:54:06;2.00;98.20
43697;DHT22;29301;47.620;19.560;2022-12-07T17:56:32;1.90;98.90
43697;DHT22;29301;47.620;19.560;2022-12-07T17:58:57;1.90;99.50
43697;DHT22;29301;47.620;19.560;2022-12-07T18:01:23;1.80;99.90
43697;DHT22;29301;47.620;19.560;2022-12-07T18:03:49;1.90;99.90
43697;DHT22;29301;47.620;19.560;2022-12-07T18:06:14;2.00;99.90
43697;DHT22;29301;47.620;19.560;2022-12-07T18:08:40;2.00;99.90
43697;DHT22;29301;47.620;19.560;2022-12-07T18:11:06;2.00;99.90
43697;DHT22;29301;47.620;19.560;2022-12-07T18:13:33;2.10;99.90
43697;DHT22;29301;47.620;19.560;2022-12-07T18:16:20;2.20;99.90
43697;DHT22;29301;47.620;19.560;2022-12-07T18:18:47;2.30;99.90
43697;DHT22;29301;47.620;19.560;2022-12-07T18:21:15;2.30;99.90
43697;DHT22;29301;47.620;19.560;2022-12-07T18:23:43;2.30;99.90
43697;DHT22;29301;47.620;19.560;2022-12-07T18:26:10;2.40;99.90
43697;DHT22;29301;47.620;19.560;2022-12-07T18:28:35;2.40;99.90
43697;DHT22;29301;47.620;19.560;2022-12-07T18:31:02;2.50;99.90
43697;DHT22;29301;47.620;19.560;2022-12-07T18:33:27;2.50;99.60
43697;DHT22;29301;47.620;19.560;2022-12-07T18:35:53;2.40;99.40
43697;DHT22;29301;47.620;19.560;2022-12-07T18:38:18;2.30;99.70
43697;DHT22;29301;47.620;19.560;2022-12-07T18:40:44;2.20;99.90
43697;DHT22;29301;47.620;19.560;2022-12-07T18:43:11;2.20;99.90
43697;DHT22;29301;47.620;19.560;2022-12-07T18:45:38;2.30;99.90
43697;DHT22;29301;47.620;19.560;2022-12-07T18:48:04;2.40;99.90
43697;DHT22;29301;47.620;19.560;2022-12-07T18:50:30;2.40;99.90
43697;DHT22;29301;47.620;19.560;2022-12-07T18:53:00;2.40;99.90
43697;DHT22;29301;47.620;19.560;2022-12-07T18:55:26;2.40;99.90
43697;DHT22;29301;47.620;19.560;2022-12-07T18:57:53;2.30;99.30
43697;DHT22;29301;47.620;19.560;2022-12-07T19:00:19;2.20;99.60
43697;DHT22;29301;47.620;19.560;2022-12-07T19:02:45;2.30;99.90
43697;DHT22;29301;47.620;19.560;2022-12-07T19:05:11;2.10;99.90
43697;DHT22;29301;47.620;19.560;2022-12-07T19:07:37;1.80;99.90
43697;DHT22;29301;47.620;19.560;2022-12-07T19:10:03;1.80;99.90
43697;DHT22;29301;47.620;19.560;2022-12-07T19:12:30;1.80;99.90
43697;DHT22;29301;47.620;19.560;2022-12-07T19:14:56;1.90;99.90
43697;DHT22;29301;47.620;19.560;2022-12-07T19:17:21;1.90;99.90
43697;DHT22;29301;47.620;19.560;2022-12-07T19:19:48;2.00;99.90
43697;DHT22;29301;47.620;19.560;2022-12-07T19:22:18;2.20;99.90
43697;DHT22;29301;47.620;19.560;2022-12-07T19:24:46;2.30;99.90
43697;DHT22;29301;47.620;19.560;2022-12-07T19:27:13;2.30;99.90
43697;DHT22;29301;47.620;19.560;2022-12-07T19:29:40;2.30;99.90
43697;DHT22;29301;47.620;19.560;2022-12-07T19:32:06;2.20;99.90
43697;DHT22;29301;47.620;19.560;2022-12-07T19:34:37;2.20;99.90
43697;DHT22;29301;47.620;19.560;2022-12-07T19:37:04;2.20;99.90
43697;DHT22;29301;47.620;19.560;2022-12-07T19:39:29;2.30;99.90
43697;DHT22;29301;47.620;19.560;2022-12-07T19:41:56;2.40;99.90
43697;DHT22;29301;47.620;19.560;2022-12-07T19:44:23;2.40;99.90
43697;DHT22;29301;47.620;19.560;2022-12-07T19:46:51;2.40;99.90
43697;DHT22;29301;47.620;19.560;2022-12-07T19:49:22;2.40;99.90
43697;DHT22;29301;47.620;19.560;2022-12-07T19:51:53;2.30;99.90
43697;DHT22;29301;47.620;19.560;2022-12-07T19:54:21;2.20;99.90
43697;DHT22;29301;47.620;19.560;2022-12-07T19:56:48;2.20;99.90
43697;DHT22;29301;47.620;19.560;2022-12-07T19:59:15;2.20;99.90
43697;DHT22;29301;47.620;19.560;2022-12-07T20:01:41;2.10;99.90
43697;DHT22;29301;47.620;19.560;2022-12-07T20:04:11;2.20;99.90
43697;DHT22;29301;47.620;19.560;2022-12-07T20:06:37;2.20;99.90
43697;DHT22;29301;47.620;19.560;2022-12-07T20:09:04;2.20;99.90
43697;DHT22;29301;47.620;19.560;2022-12-07T20:11:30;2.30;99.90
43697;DHT22;29301;47.620;19.560;2022-12-07T20:14:14;2.30;99.90
43697;DHT22;29301;47.620;19.560;2022-12-07T20:16:40;2.50;99.90
43697;DHT22;29301;47.620;19.560;2022-12-07T20:19:07;3.00;99.90
43697;DHT22;29301;47.620;19.560;2022-12-07T20:21:34;3.10;99.90
43697;DHT22;29301;47.620;19.560;2022-12-07T20:24:01;2.90;99.90
43697;DHT22;29301;47.620;19.560;2022-12-07T20:26:27;2.80;99.90
43697;DHT22;29301;47.620;19.560;2022-12-07T20:28:53;2.50;99.90
43697;DHT22;29301;47.620;19.560;2022-12-07T20:31:19;2.30;99.90
43697;DHT22;29301;47.620;19.560;2022-12-07T20:33:45;2.20;99.90
43697;DHT22;29301;47.620;19.560;2022-12-07T20:36:12;2.20;99.90
43697;DHT22;29301;47.620;19.560;2022-12-07T20:38:38;2.20;99.90
43697;DHT22;29301;47.620;19.560;2022-12-07T20:41:05;2.20;99.90
43697;DHT22;29301;47.620;19.560;2022-12-07T20:43:32;2.30;99.90
43697;DHT22;29301;47.620;19.560;2022-12-07T20:45:58;2.20;99.90
43697;DHT22;29301;47.620;19.560;2022-12-07T20:48:25;2.20;99.90
43697;DHT22;29301;47.620;19.560;2022-12-07T20:50:50;2.20;99.90
43697;DHT22;29301;47.620;19.560;2022-12-07T20:53:16;2.20;99.90
43697;DHT22;29301;47.620;19.560;2022-12-07T20:55:42;2.20;99.90
43697;DHT22;29301;47.620;19.560;2022-12-07T20:58:08;2.20;99.90
43697;DHT22;29301;47.620;19.560;2022-12-07T21:00:34;2.10;99.90
43697;DHT22;29301;47.620;19.560;2022-12-07T21:03:02;2.00;99.90
43697;DHT22;29301;47.620;19.560;2022-12-07T21:05:28;1.80;99.90
43697;DHT22;29301;47.620;19.560;2022-12-07T21:07:54;1.80;99.90
43697;DHT22;29301;47.620;19.560;2022-12-07T21:10:20;1.70;99.90
43697;DHT22;29301;47.620;19.560;2022-12-07T21:12:45;1.70;99.90
43697;DHT22;29301;47.620;19.560;2022-12-07T21:15:11;1.80;99.90
43697;DHT22;29301;47.620;19.560;2022-12-07T21:17:37;1.90;99.90
43697;DHT22;29301;47.620;19.560;2022-12-07T21:20:03;2.00;99.90
43697;DHT22;29301;47.620;19.560;2022-12-07T21:22:28;2.00;99.90
43697;DHT22;29301;47.620;19.560;2022-12-07T21:24:54;2.10;99.90
43697;DHT22;29301;47.620;19.560;2022-12-07T21:27:20;1.90;99.90
43697;DHT22;29301;47.620;19.560;2022-12-07T21:29:45;1.80;99.90
43697;DHT22;29301;47.620;19.560;2022-12-07T21:32:11;1.70;99.90
43697;DHT22;29301;47.620;19.560;2022-12-07T21:34:37;1.70;99.90
43697;DHT22;29301;47.620;19.560;2022-12-07T21:37:03;1.70;99.90
43697;DHT22;29301;47.620;19.560;2022-12-07T21:39:28;1.70;99.90
43697;DHT22;29301;47.620;19.560;2022-12-07T21:41:54;1.80;99.90
43697;DHT22;29301;47.620;19.560;2022-12-07T21:44:20;1.90;99.90
43697;DHT22;29301;47.620;19.560;2022-12-07T21:46:45;1.90;99.90
43697;DHT22;29301;47.620;19.560;2022-12-07T21:49:13;2.00;99.90
43697;DHT22;29301;47.620;19.560;2022-12-07T21:51:40;2.00;99.90
43697;DHT22;29301;47.620;19.560;2022-12-07T21:54:08;2.00;99.90
43697;DHT22;29301;47.620;19.560;2022-12-07T21:56:37;2.00;99.90
43697;DHT22;29301;47.620;19.560;2022-12-07T21:59:06;2.00;99.90
43697;DHT22;29301;47.620;19.560;2022-12-07T22:01:34;2.00;99.90
43697;DHT22;29301;47.620;19.560;2022-12-07T22:04:14;1.90;99.90
43697;DHT22;29301;47.620;19.560;2022-12-07T22:06:41;1.90;99.90
43697;DHT22;29301;47.620;19.560;2022-12-07T22:09:08;1.90;99.90
43697;DHT22;29301;47.620;19.560;2022-12-07T22:11:34;1.80;99.90
43697;DHT22;29301;47.620;19.560;2022-12-07T22:13:59;1.80;99.90
43697;DHT22;29301;47.620;19.560;2022-12-07T22:16:44;1.90;99.90
43697;DHT22;29301;47.620;19.560;2022-12-07T22:19:09;1.90;99.90
43697;DHT22;29301;47.620;19.560;2022-12-07T22:21:35;2.00;99.90
43697;DHT22;29301;47.620;19.560;2022-12-07T22:24:02;2.00;99.90
43697;DHT22;29301;47.620;19.560;2022-12-07T22:26:28;2.10;99.90
43697;DHT22;29301;47.620;19.560;2022-12-07T22:28:53;2.00;99.90
43697;DHT22;29301;47.620;19.560;2022-12-07T22:31:20;2.00;99.90
43697;DHT22;29301;47.620;19.560;2022-12-07T22:33:46;1.80;99.90
43697;DHT22;29301;47.620;19.560;2022-12-07T22:36:13;1.60;99.90
43697;DHT22;29301;47.620;19.560;2022-12-07T22:38:39;1.60;99.90
43697;DHT22;29301;47.620;19.560;2022-12-07T22:41:31;1.70;99.90
43697;DHT22;29301;47.620;19.560;2022-12-07T22:43:57;1.60;99.90
43697;DHT22;29301;47.620;19.560;2022-12-07T22:46:24;1.60;99.90
43697;DHT22;29301;47.620;19.560;2022-12-07T22:48:50;1.60;99.90
43697;DHT22;29301;47.620;19.560;2022-12-07T22:51:23;1.70;99.90
43697;DHT22;29301;47.620;19.560;2022-12-07T22:53:50;1.50;99.90
43697;DHT22;29301;47.620;19.560;2022-12-07T22:56:16;1.50;99.90
43697;DHT22;29301;47.620;19.560;2022-12-07T22:58:42;1.50;99.90
43697;DHT22;29301;47.620;19.560;2022-12-07T23:01:12;1.60;99.90
43697;DHT22;29301;47.620;19.560;2022-12-07T23:03:38;1.70;99.90
43697;DHT22;29301;47.620;19.560;2022-12-07T23:06:10;1.70;99.90
43697;DHT22;29301;47.620;19.560;2022-12-07T23:08:36;1.70;99.90
43697;DHT22;29301;47.620;19.560;2022-12-07T23:11:03;1.80;99.90
43697;DHT22;29301;47.620;19.560;2022-12-07T23:13:29;1.90;99.90
43697;DHT22;29301;47.620;19.560;2022-12-07T23:18:32;1.80;99.90
43697;DHT22;29301;47.620;19.560;2022-12-07T23:20:58;1.70;99.90
43697;DHT22;29301;47.620;19.560;2022-12-07T23:23:24;1.40;99.90
43697;DHT22;29301;47.620;19.560;2022-12-07T23:25:50;1.30;99.90
43697;DHT22;29301;47.620;19.560;2022-12-07T23:28:16;1.30;99.90
43697;DHT22;29301;47.620;19.560;2022-12-07T23:30:41;1.30;99.90
43697;DHT22;29301;47.620;19.560;2022-12-07T23:33:07;1.30;99.90
43697;DHT22;29301;47.620;19.560;2022-12-07T23:35:33;1.10;99.90
43697;DHT22;29301;47.620;19.560;2022-12-07T23:37:58;0.90;99.90
43697;DHT22;29301;47.620;19.560;2022-12-07T23:40:24;0.90;99.90
43697;DHT22;29301;47.620;19.560;2022-12-07T23:42:50;0.90;99.90
43697;DHT22;29301;47.620;19.560;2022-12-07T23:45:15;1.00;99.90
43697;DHT22;29301;47.620;19.560;2022-12-07T23:47:41;1.10;99.90
43697;DHT22;29301;47.620;19.560;2022-12-07T23:50:07;1.10;99.90
43697;DHT22;29301;47.620;19.560;2022-12-07T23:52:33;1.20;99.90
43697;DHT22;29301;47.620;19.560;2022-12-07T23:54:58;1.30;99.90
43697;DHT22;29301;47.620;19.560;2022-12-07T23:57:24;1.30;99.90
43697;DHT22;29301;47.620;19.560;2022-12-07T23:59:50;1.30;99.90
